createdAt,value
2018-12-09T00:00:30.792Z,44.40
2018-12-09T00:01:08.630Z,44.20
2018-12-09T00:01:46.849Z,44.20
2018-12-09T00:02:24.945Z,44.50
2018-12-09T00:03:02.933Z,44.40
2018-12-09T00:03:40.960Z,44.20
2018-12-09T00:04:18.900Z,44.10
2018-12-09T00:04:56.854Z,44.20
2018-12-09T00:05:34.951Z,44.50
2018-12-09T00:06:13.620Z,44.40
2018-12-09T00:06:51.580Z,44.40
2018-12-09T00:07:29.490Z,44.30
2018-12-09T00:08:07.150Z,44.30
2018-12-09T00:08:45.020Z,44.30
2018-12-09T00:09:22.743Z,44.30
2018-12-09T00:10:00.748Z,44.60
2018-12-09T00:10:38.703Z,44.30
2018-12-09T00:11:16.571Z,44.60
2018-12-09T00:11:54.723Z,44.40
2018-12-09T00:12:32.883Z,44.30
2018-12-09T00:13:10.843Z,44.40
2018-12-09T00:13:48.449Z,44.20
2018-12-09T00:14:26.538Z,44.20
2018-12-09T00:15:05.222Z,44.40
2018-12-09T00:15:42.920Z,44.60
2018-12-09T00:16:21.054Z,44.70
2018-12-09T00:16:58.889Z,44.50
2018-12-09T00:17:36.763Z,44.30
2018-12-09T00:18:15.078Z,44.50
2018-12-09T00:18:53.031Z,44.60
2018-12-09T00:19:30.790Z,44.40
2018-12-09T00:20:08.700Z,44.70
2018-12-09T00:20:46.609Z,44.60
2018-12-09T00:21:24.335Z,44.40
2018-12-09T00:22:02.557Z,44.30
2018-12-09T00:22:40.446Z,44.30
2018-12-09T00:23:18.288Z,44.30
2018-12-09T00:23:56.188Z,44.20
2018-12-09T00:24:33.809Z,44.30
2018-12-09T00:25:11.548Z,44.30
2018-12-09T00:25:49.428Z,44.30
2018-12-09T00:26:27.250Z,44.40
2018-12-09T00:27:04.958Z,44.30
2018-12-09T00:27:43.047Z,44.30
2018-12-09T00:28:20.917Z,44.20
2018-12-09T00:28:59.916Z,44.30
2018-12-09T00:29:38.219Z,44.20
2018-12-09T00:30:16.190Z,44.30
2018-12-09T00:30:53.716Z,44.30
2018-12-09T00:31:31.509Z,44.80
2018-12-09T00:32:09.478Z,44.90
2018-12-09T00:32:47.165Z,44.80
2018-12-09T00:33:25.067Z,44.80
2018-12-09T00:34:02.996Z,44.80
2018-12-09T00:34:42.186Z,44.40
2018-12-09T00:35:20.195Z,44.30
2018-12-09T00:35:58.215Z,44.40
2018-12-09T00:36:35.975Z,44.40
2018-12-09T00:37:13.661Z,44.60
2018-12-09T00:37:51.444Z,44.60
2018-12-09T00:38:29.364Z,44.80
2018-12-09T00:39:07.166Z,44.40
2018-12-09T00:39:45.014Z,44.30
2018-12-09T00:40:23.003Z,44.20
2018-12-09T00:41:01.332Z,44.80
2018-12-09T00:41:39.174Z,44.30
2018-12-09T00:42:17.014Z,44.30
2018-12-09T00:42:54.438Z,44.20
2018-12-09T00:43:32.353Z,44.20
2018-12-09T00:44:10.072Z,44.10
2018-12-09T00:44:48.064Z,44.60
2018-12-09T00:45:26.062Z,44.40
2018-12-09T00:46:04.102Z,44.40
2018-12-09T00:46:41.822Z,44.30
2018-12-09T00:47:19.823Z,44.40
2018-12-09T00:47:57.885Z,44.10
2018-12-09T00:48:36.053Z,44.80
2018-12-09T00:49:13.886Z,44.10
2018-12-09T00:49:52.002Z,44.10
2018-12-09T00:50:29.942Z,44.10
2018-12-09T00:51:07.729Z,44.10
2018-12-09T00:51:46.321Z,44.10
2018-12-09T00:52:24.220Z,44.20
2018-12-09T00:53:02.323Z,44.30
2018-12-09T00:53:40.420Z,44.40
2018-12-09T00:54:18.458Z,44.30
2018-12-09T00:54:56.551Z,44.30
2018-12-09T00:55:34.993Z,44.30
2018-12-09T00:56:13.135Z,44.30
2018-12-09T00:56:51.154Z,44.20
2018-12-09T00:57:29.076Z,44.10
2018-12-09T00:58:06.860Z,44.20
2018-12-09T00:58:44.570Z,44.20
2018-12-09T00:59:22.380Z,44.40
2018-12-09T01:00:00.209Z,44.30
2018-12-09T01:00:38.273Z,44.50
2018-12-09T01:01:16.793Z,44.30
2018-12-09T01:01:54.580Z,44.30
2018-12-09T01:02:33.119Z,44.40
2018-12-09T01:03:10.801Z,44.50
2018-12-09T01:03:48.769Z,44.60
2018-12-09T01:04:27.119Z,44.50
2018-12-09T01:05:04.954Z,44.80
2018-12-09T01:05:42.707Z,44.50
2018-12-09T01:06:21.250Z,44.50
2018-12-09T01:06:59.399Z,44.50
2018-12-09T01:07:37.109Z,44.60
2018-12-09T01:08:16.478Z,44.80
2018-12-09T01:08:54.023Z,44.90
2018-12-09T01:09:32.327Z,45.00
2018-12-09T01:10:09.998Z,44.70
2018-12-09T01:10:47.992Z,44.50
2018-12-09T01:11:25.898Z,44.30
2018-12-09T01:12:03.897Z,44.30
2018-12-09T01:12:42.027Z,44.50
2018-12-09T01:13:20.526Z,44.40
2018-12-09T01:13:58.068Z,44.40
2018-12-09T01:14:35.668Z,44.50
2018-12-09T01:15:13.760Z,44.40
2018-12-09T01:15:51.777Z,44.70
2018-12-09T01:16:29.804Z,44.60
2018-12-09T01:17:08.007Z,44.40
2018-12-09T01:17:46.042Z,44.40
2018-12-09T01:18:24.028Z,44.70
2018-12-09T01:19:02.069Z,44.70
2018-12-09T01:19:39.889Z,44.70
2018-12-09T01:20:18.023Z,44.70
2018-12-09T01:20:56.107Z,44.60
2018-12-09T01:21:33.956Z,44.50
2018-12-09T01:22:12.096Z,44.70
2018-12-09T01:22:50.029Z,44.60
2018-12-09T01:23:27.938Z,45.10
2018-12-09T01:24:05.995Z,44.70
2018-12-09T01:24:43.796Z,44.50
2018-12-09T01:25:21.718Z,44.70
2018-12-09T01:25:59.626Z,44.90
2018-12-09T01:26:37.558Z,44.60
2018-12-09T01:27:15.485Z,44.60
2018-12-09T01:27:53.355Z,44.50
2018-12-09T01:28:31.325Z,44.40
2018-12-09T01:29:09.265Z,44.50
2018-12-09T01:29:47.140Z,44.40
2018-12-09T01:30:24.765Z,44.40
2018-12-09T01:31:02.629Z,44.40
2018-12-09T01:31:40.503Z,44.40
2018-12-09T01:32:18.282Z,44.60
2018-12-09T01:32:56.095Z,44.50
2018-12-09T01:33:34.734Z,44.40
2018-12-09T01:34:12.754Z,44.40
2018-12-09T01:34:50.533Z,44.50
2018-12-09T01:35:28.564Z,44.60
2018-12-09T01:36:06.214Z,44.60
2018-12-09T01:36:43.823Z,44.70
2018-12-09T01:37:21.852Z,45.10
2018-12-09T01:38:00.665Z,44.60
2018-12-09T01:38:38.413Z,44.60
2018-12-09T01:39:16.563Z,44.60
2018-12-09T01:39:54.473Z,44.70
2018-12-09T01:40:32.373Z,44.60
2018-12-09T01:41:10.235Z,45.00
2018-12-09T01:41:47.962Z,45.00
2018-12-09T01:42:26.502Z,44.90
2018-12-09T01:43:04.665Z,44.80
2018-12-09T01:43:42.406Z,44.90
2018-12-09T01:44:20.292Z,45.10
2018-12-09T01:44:57.887Z,45.10
2018-12-09T01:45:35.592Z,45.10
2018-12-09T01:46:13.352Z,45.00
2018-12-09T01:46:51.356Z,45.10
2018-12-09T01:47:29.031Z,45.20
2018-12-09T01:48:06.811Z,45.20
2018-12-09T01:48:44.641Z,45.20
2018-12-09T01:49:22.652Z,45.20
2018-12-09T01:50:00.552Z,45.20
2018-12-09T01:50:38.071Z,45.20
2018-12-09T01:51:15.640Z,45.70
2018-12-09T01:51:53.391Z,45.60
2018-12-09T01:52:31.551Z,45.60
2018-12-09T01:53:09.360Z,45.60
2018-12-09T01:53:47.330Z,45.50
2018-12-09T01:54:25.053Z,45.50
2018-12-09T01:55:02.954Z,45.50
2018-12-09T01:55:41.041Z,45.60
2018-12-09T01:56:19.030Z,45.60
2018-12-09T01:56:57.262Z,45.60
2018-12-09T01:57:35.250Z,45.60
2018-12-09T01:58:12.821Z,45.80
2018-12-09T01:58:50.561Z,46.00
2018-12-09T01:59:28.865Z,45.70
2018-12-09T02:00:07.061Z,46.00
2018-12-09T02:00:44.961Z,45.80
2018-12-09T02:01:23.174Z,46.10
2018-12-09T02:02:01.334Z,45.90
2018-12-09T02:02:39.473Z,45.90
2018-12-09T02:03:17.373Z,45.90
2018-12-09T02:03:55.269Z,46.00
2018-12-09T02:04:33.330Z,46.10
2018-12-09T02:05:11.198Z,46.20
2018-12-09T02:05:49.298Z,46.10
2018-12-09T02:06:27.177Z,46.20
2018-12-09T02:07:05.100Z,46.10
2018-12-09T02:07:42.840Z,46.10
2018-12-09T02:08:20.812Z,46.20
2018-12-09T02:08:58.538Z,46.20
2018-12-09T02:09:36.502Z,46.20
2018-12-09T02:10:14.947Z,46.10
2018-12-09T02:10:53.171Z,45.70
2018-12-09T02:11:31.082Z,46.10
2018-12-09T02:12:09.096Z,46.20
2018-12-09T02:12:46.807Z,46.10
2018-12-09T02:13:24.638Z,46.10
2018-12-09T02:14:02.507Z,46.20
2018-12-09T02:14:41.087Z,46.10
2018-12-09T02:15:18.926Z,46.10
2018-12-09T02:15:57.024Z,46.20
2018-12-09T02:16:34.878Z,46.10
2018-12-09T02:17:12.625Z,46.10
2018-12-09T02:17:50.705Z,46.00
2018-12-09T02:18:28.697Z,46.10
2018-12-09T02:19:06.717Z,46.20
2018-12-09T02:19:44.615Z,46.20
2018-12-09T02:20:22.456Z,46.30
2018-12-09T02:21:00.548Z,47.00
2018-12-09T02:21:38.437Z,46.20
2018-12-09T02:22:16.387Z,46.20
2018-12-09T02:22:54.405Z,46.20
2018-12-09T02:23:32.080Z,46.20
2018-12-09T02:24:09.844Z,46.30
2018-12-09T02:24:47.717Z,46.20
2018-12-09T02:25:25.565Z,46.40
2018-12-09T02:26:03.189Z,46.50
2018-12-09T02:26:40.974Z,46.40
2018-12-09T02:27:18.758Z,46.50
2018-12-09T02:27:56.607Z,46.40
2018-12-09T02:28:34.535Z,46.70
2018-12-09T02:29:13.162Z,46.50
2018-12-09T02:29:51.423Z,46.70
2018-12-09T02:30:29.477Z,46.70
2018-12-09T02:31:07.344Z,46.40
2018-12-09T02:31:45.217Z,46.40
2018-12-09T02:32:23.206Z,46.40
2018-12-09T02:33:01.198Z,46.40
2018-12-09T02:33:39.281Z,46.40
2018-12-09T02:34:16.934Z,46.70
2018-12-09T02:34:54.830Z,46.50
2018-12-09T02:35:32.860Z,46.50
2018-12-09T02:36:11.015Z,46.40
2018-12-09T02:36:48.983Z,46.40
2018-12-09T02:37:26.733Z,46.60
2018-12-09T02:38:05.143Z,46.60
2018-12-09T02:38:42.922Z,46.50
2018-12-09T02:39:20.793Z,46.50
2018-12-09T02:39:58.639Z,46.50
2018-12-09T02:40:36.473Z,46.80
2018-12-09T02:41:14.433Z,46.60
2018-12-09T02:41:52.344Z,46.60
2018-12-09T02:42:31.323Z,46.70
2018-12-09T02:43:09.324Z,46.70
2018-12-09T02:43:46.893Z,46.50
2018-12-09T02:44:24.543Z,46.50
2018-12-09T02:45:02.478Z,46.60
2018-12-09T02:45:40.179Z,46.50
2018-12-09T02:46:17.734Z,46.50
2018-12-09T02:46:55.866Z,46.60
2018-12-09T02:47:33.922Z,46.70
2018-12-09T02:48:11.681Z,46.70
2018-12-09T02:48:49.471Z,46.60
2018-12-09T02:49:27.409Z,46.80
2018-12-09T02:50:05.196Z,46.50
2018-12-09T02:50:43.173Z,46.50
2018-12-09T02:51:20.961Z,46.60
2018-12-09T02:51:58.668Z,46.60
2018-12-09T02:52:36.623Z,46.60
2018-12-09T02:53:14.367Z,46.70
2018-12-09T02:53:51.964Z,46.50
2018-12-09T02:54:29.919Z,46.50
2018-12-09T02:55:08.122Z,46.50
2018-12-09T02:55:45.841Z,46.40
2018-12-09T02:56:23.840Z,46.50
2018-12-09T02:57:02.386Z,46.40
2018-12-09T02:57:40.202Z,46.50
2018-12-09T02:58:18.632Z,46.50
2018-12-09T02:58:56.674Z,46.70
2018-12-09T02:59:34.572Z,46.60
2018-12-09T03:00:12.526Z,46.60
2018-12-09T03:00:50.319Z,47.10
2018-12-09T03:01:28.863Z,46.70
2018-12-09T03:02:06.662Z,46.50
2018-12-09T03:02:44.742Z,46.70
2018-12-09T03:03:22.392Z,46.50
2018-12-09T03:04:00.577Z,46.50
2018-12-09T03:04:38.274Z,46.50
2018-12-09T03:05:16.503Z,46.50
2018-12-09T03:05:54.892Z,46.50
2018-12-09T03:06:32.542Z,46.50
2018-12-09T03:07:10.272Z,46.50
2018-12-09T03:07:48.334Z,46.50
2018-12-09T03:08:25.953Z,46.60
2018-12-09T03:09:03.595Z,46.50
2018-12-09T03:09:41.343Z,46.70
2018-12-09T03:10:19.275Z,46.70
2018-12-09T03:10:56.951Z,46.70
2018-12-09T03:11:34.972Z,46.70
2018-12-09T03:12:12.889Z,46.80
2018-12-09T03:12:50.822Z,46.70
2018-12-09T03:13:28.507Z,46.80
2018-12-09T03:14:06.362Z,47.00
2018-12-09T03:14:44.396Z,47.10
2018-12-09T03:15:22.401Z,47.00
2018-12-09T03:16:00.573Z,47.00
2018-12-09T03:16:38.121Z,47.20
2018-12-09T03:17:16.192Z,47.10
2018-12-09T03:17:53.961Z,47.20
2018-12-09T03:18:31.891Z,47.20
2018-12-09T03:19:09.822Z,47.30
2018-12-09T03:19:47.506Z,47.40
2018-12-09T03:20:26.053Z,48.00
2018-12-09T03:21:03.732Z,47.50
2018-12-09T03:21:41.468Z,47.70
2018-12-09T03:22:20.032Z,47.70
2018-12-09T03:22:58.032Z,47.70
2018-12-09T03:23:35.951Z,47.70
2018-12-09T03:24:13.802Z,47.80
2018-12-09T03:24:52.282Z,47.80
2018-12-09T03:25:30.094Z,47.70
2018-12-09T03:26:07.862Z,47.70
2018-12-09T03:26:45.904Z,47.80
2018-12-09T03:27:23.621Z,48.00
2018-12-09T03:28:01.672Z,47.90
2018-12-09T03:28:39.294Z,48.00
2018-12-09T03:29:17.052Z,47.90
2018-12-09T03:29:54.891Z,48.00
2018-12-09T03:30:32.528Z,48.10
2018-12-09T03:31:10.346Z,48.10
2018-12-09T03:31:48.078Z,48.10
2018-12-09T03:32:25.917Z,48.10
2018-12-09T03:33:03.855Z,48.20
2018-12-09T03:33:41.651Z,48.20
2018-12-09T03:34:19.793Z,48.20
2018-12-09T03:34:58.163Z,48.80
2018-12-09T03:35:35.950Z,48.30
2018-12-09T03:36:13.761Z,48.30
2018-12-09T03:36:51.491Z,48.30
2018-12-09T03:37:29.546Z,48.90
2018-12-09T03:38:07.335Z,48.60
2018-12-09T03:38:45.321Z,48.40
2018-12-09T03:39:23.839Z,48.30
2018-12-09T03:40:01.672Z,48.30
2018-12-09T03:40:39.490Z,48.40
2018-12-09T03:41:17.755Z,48.30
2018-12-09T03:41:55.433Z,48.30
2018-12-09T03:42:32.961Z,48.40
2018-12-09T03:43:10.751Z,48.40
2018-12-09T03:43:48.951Z,48.50
2018-12-09T03:44:27.422Z,48.40
2018-12-09T03:45:05.512Z,48.50
2018-12-09T03:45:43.698Z,48.50
2018-12-09T03:46:21.864Z,48.50
2018-12-09T03:46:59.980Z,48.50
2018-12-09T03:47:38.174Z,48.40
2018-12-09T03:48:15.632Z,48.40
2018-12-09T03:48:53.345Z,48.40
2018-12-09T03:49:31.278Z,48.90
2018-12-09T03:50:09.229Z,48.50
2018-12-09T03:50:47.125Z,48.50
2018-12-09T03:51:24.471Z,48.50
2018-12-09T03:52:02.530Z,48.60
2018-12-09T03:52:40.663Z,48.50
2018-12-09T03:53:18.659Z,48.50
2018-12-09T03:53:56.989Z,48.50
2018-12-09T03:54:34.689Z,48.70
2018-12-09T03:55:12.657Z,48.50
2018-12-09T03:55:50.640Z,48.60
2018-12-09T03:56:28.530Z,48.50
2018-12-09T03:57:06.419Z,48.60
2018-12-09T03:57:44.370Z,48.50
2018-12-09T03:58:22.313Z,48.60
2018-12-09T03:59:00.121Z,48.50
2018-12-09T03:59:37.910Z,48.40
2018-12-09T04:00:15.703Z,48.40
2018-12-09T04:00:53.364Z,48.50
2018-12-09T04:01:31.074Z,48.50
2018-12-09T04:02:08.952Z,48.60
2018-12-09T04:02:47.334Z,48.40
2018-12-09T04:03:25.460Z,48.40
2018-12-09T04:04:03.400Z,48.30
2018-12-09T04:04:41.168Z,48.30
2018-12-09T04:05:19.363Z,48.30
2018-12-09T04:05:57.159Z,48.30
2018-12-09T04:06:35.014Z,48.40
2018-12-09T04:07:13.022Z,48.50
2018-12-09T04:07:51.143Z,48.30
2018-12-09T04:08:29.241Z,48.20
2018-12-09T04:09:07.348Z,48.20
2018-12-09T04:09:45.030Z,47.70
2018-12-09T04:10:23.021Z,48.10
2018-12-09T04:11:00.880Z,48.10
2018-12-09T04:11:38.716Z,48.00
2018-12-09T04:12:16.516Z,48.10
2018-12-09T04:12:54.470Z,48.00
2018-12-09T04:13:32.529Z,48.00
2018-12-09T04:14:10.728Z,48.10
2018-12-09T04:14:48.654Z,48.10
2018-12-09T04:15:26.630Z,47.90
2018-12-09T04:16:04.429Z,47.90
2018-12-09T04:16:42.230Z,47.80
2018-12-09T04:17:20.629Z,47.80
2018-12-09T04:17:58.855Z,47.80
2018-12-09T04:18:36.958Z,47.90
2018-12-09T04:19:14.670Z,47.70
2018-12-09T04:19:52.790Z,47.80
2018-12-09T04:20:30.522Z,47.90
2018-12-09T04:21:08.669Z,47.90
2018-12-09T04:21:46.443Z,47.80
2018-12-09T04:22:24.506Z,47.80
2018-12-09T04:23:02.852Z,47.90
2018-12-09T04:23:41.010Z,47.80
2018-12-09T04:24:19.098Z,47.80
2018-12-09T04:24:57.125Z,48.00
2018-12-09T04:25:34.983Z,47.90
2018-12-09T04:26:12.968Z,47.60
2018-12-09T04:26:51.026Z,47.60
2018-12-09T04:27:29.258Z,47.70
2018-12-09T04:28:07.174Z,47.70
2018-12-09T04:28:45.129Z,47.70
2018-12-09T04:29:24.465Z,47.70
2018-12-09T04:30:02.380Z,47.90
2018-12-09T04:30:40.319Z,48.00
2018-12-09T04:31:18.030Z,47.80
2018-12-09T04:31:56.458Z,47.70
2018-12-09T04:32:34.521Z,47.50
2018-12-09T04:33:12.458Z,47.50
2018-12-09T04:33:50.387Z,47.60
2018-12-09T04:34:28.089Z,47.80
2018-12-09T04:35:06.128Z,47.70
2018-12-09T04:35:43.839Z,47.50
2018-12-09T04:36:21.673Z,47.50
2018-12-09T04:36:59.652Z,47.40
2018-12-09T04:37:37.939Z,47.40
2018-12-09T04:38:15.918Z,47.50
2018-12-09T04:38:53.939Z,47.50
2018-12-09T04:39:31.870Z,47.60
2018-12-09T04:40:09.980Z,47.80
2018-12-09T04:40:47.830Z,47.50
2018-12-09T04:41:25.469Z,47.40
2018-12-09T04:42:03.819Z,47.50
2018-12-09T04:42:41.798Z,47.60
2018-12-09T04:43:19.291Z,47.50
2018-12-09T04:43:57.108Z,47.70
2018-12-09T04:44:35.058Z,47.50
2018-12-09T04:45:12.579Z,47.60
2018-12-09T04:45:50.269Z,47.70
2018-12-09T04:46:28.358Z,47.70
2018-12-09T04:47:06.010Z,47.50
2018-12-09T04:47:44.118Z,47.40
2018-12-09T04:48:22.268Z,47.50
2018-12-09T04:49:00.093Z,47.30
2018-12-09T04:49:37.717Z,47.60
2018-12-09T04:50:15.597Z,47.30
2018-12-09T04:50:53.412Z,47.30
2018-12-09T04:51:31.287Z,47.30
2018-12-09T04:52:09.199Z,47.50
2018-12-09T04:52:46.848Z,47.50
2018-12-09T04:53:24.998Z,47.40
2018-12-09T04:54:02.864Z,47.60
2018-12-09T04:54:40.956Z,47.40
2018-12-09T04:55:19.004Z,47.60
2018-12-09T04:55:56.800Z,47.70
2018-12-09T04:56:35.107Z,47.60
2018-12-09T04:57:13.767Z,47.60
2018-12-09T04:57:51.724Z,47.60
2018-12-09T04:58:29.889Z,47.70
2018-12-09T04:59:07.770Z,47.70
2018-12-09T04:59:45.627Z,48.00
2018-12-09T05:00:24.047Z,47.70
2018-12-09T05:01:02.217Z,47.60
2018-12-09T05:01:40.796Z,47.70
2018-12-09T05:02:18.507Z,47.60
2018-12-09T05:02:56.532Z,47.60
2018-12-09T05:03:34.359Z,47.60
2018-12-09T05:04:12.077Z,47.60
2018-12-09T05:04:50.017Z,47.70
2018-12-09T05:05:28.358Z,47.70
2018-12-09T05:06:06.237Z,47.70
2018-12-09T05:06:43.968Z,47.70
2018-12-09T05:07:21.938Z,47.50
2018-12-09T05:07:59.669Z,47.50
2018-12-09T05:08:37.547Z,47.60
2018-12-09T05:09:15.189Z,47.60
2018-12-09T05:09:53.230Z,47.60
2018-12-09T05:10:30.868Z,47.60
2018-12-09T05:11:09.104Z,47.70
2018-12-09T05:11:47.151Z,47.60
2018-12-09T05:12:25.001Z,47.70
2018-12-09T05:13:02.864Z,47.80
2018-12-09T05:13:40.621Z,47.70
2018-12-09T05:14:18.416Z,47.70
2018-12-09T05:14:56.160Z,47.70
2018-12-09T05:15:34.614Z,47.60
2018-12-09T05:16:12.609Z,47.70
2018-12-09T05:16:50.221Z,47.70
2018-12-09T05:17:28.300Z,47.80
2018-12-09T05:18:05.830Z,47.80
2018-12-09T05:18:43.854Z,47.70
2018-12-09T05:19:21.932Z,47.80
2018-12-09T05:19:59.522Z,47.80
2018-12-09T05:20:37.304Z,48.00
2018-12-09T05:21:15.711Z,47.80
2018-12-09T05:21:53.830Z,48.00
2018-12-09T05:22:31.803Z,48.00
2018-12-09T05:23:09.744Z,47.90
2018-12-09T05:23:47.832Z,47.90
2018-12-09T05:24:25.763Z,47.90
2018-12-09T05:25:03.780Z,48.10
2018-12-09T05:25:42.393Z,48.00
2018-12-09T05:26:20.113Z,48.00
2018-12-09T05:26:58.044Z,48.10
2018-12-09T05:27:35.974Z,48.20
2018-12-09T05:28:13.864Z,48.20
2018-12-09T05:28:51.648Z,48.70
2018-12-09T05:29:29.833Z,48.20
2018-12-09T05:30:08.122Z,48.40
2018-12-09T05:30:45.884Z,48.30
2018-12-09T05:31:23.994Z,48.10
2018-12-09T05:32:01.564Z,48.20
2018-12-09T05:32:39.346Z,48.60
2018-12-09T05:33:17.183Z,48.00
2018-12-09T05:33:55.174Z,48.10
2018-12-09T05:34:33.300Z,48.10
2018-12-09T05:35:11.142Z,48.00
2018-12-09T05:35:48.784Z,48.00
2018-12-09T05:36:26.725Z,48.00
2018-12-09T05:37:04.895Z,48.20
2018-12-09T05:37:42.664Z,48.00
2018-12-09T05:38:20.285Z,48.10
2018-12-09T05:38:58.162Z,48.10
2018-12-09T05:39:35.925Z,48.20
2018-12-09T05:40:13.989Z,48.20
2018-12-09T05:40:51.844Z,48.30
2018-12-09T05:41:29.536Z,48.30
2018-12-09T05:42:07.174Z,48.30
2018-12-09T05:42:44.858Z,48.40
2018-12-09T05:43:23.085Z,48.30
2018-12-09T05:44:01.127Z,48.30
2018-12-09T05:44:39.249Z,48.50
2018-12-09T05:45:17.146Z,48.30
2018-12-09T05:45:55.449Z,48.30
2018-12-09T05:46:33.238Z,48.40
2018-12-09T05:47:10.853Z,48.80
2018-12-09T05:47:48.803Z,48.60
2018-12-09T05:48:26.647Z,49.00
2018-12-09T05:49:04.556Z,48.50
2018-12-09T05:49:42.396Z,48.50
2018-12-09T05:50:20.536Z,48.70
2018-12-09T05:50:58.476Z,48.60
2018-12-09T05:51:36.316Z,48.00
2018-12-09T05:52:14.394Z,48.00
2018-12-09T05:52:52.056Z,48.00
2018-12-09T05:53:30.085Z,47.80
2018-12-09T05:54:07.977Z,48.10
2018-12-09T05:54:46.912Z,48.10
2018-12-09T05:55:24.947Z,48.20
2018-12-09T05:56:02.726Z,48.10
2018-12-09T05:56:40.408Z,48.00
2018-12-09T05:57:18.110Z,47.80
2018-12-09T05:57:55.976Z,47.80
2018-12-09T05:58:34.037Z,47.70
2018-12-09T05:59:11.886Z,47.80
2018-12-09T05:59:49.756Z,47.70
2018-12-09T06:00:27.871Z,47.70
2018-12-09T06:01:05.546Z,48.00
2018-12-09T06:01:43.628Z,47.80
2018-12-09T06:02:21.607Z,48.00
2018-12-09T06:02:59.629Z,47.80
2018-12-09T06:03:37.786Z,47.60
2018-12-09T06:04:15.778Z,47.50
2018-12-09T06:04:53.863Z,47.70
2018-12-09T06:05:31.728Z,47.60
2018-12-09T06:06:09.318Z,47.80
2018-12-09T06:06:47.151Z,47.70
2018-12-09T06:07:24.810Z,47.90
2018-12-09T06:08:02.729Z,47.90
2018-12-09T06:08:40.731Z,47.70
2018-12-09T06:09:18.678Z,48.00
2018-12-09T06:09:56.778Z,48.00
2018-12-09T06:10:34.891Z,48.20
2018-12-09T06:11:12.486Z,48.10
2018-12-09T06:11:50.519Z,48.20
2018-12-09T06:12:28.378Z,47.90
2018-12-09T06:13:06.329Z,47.90
2018-12-09T06:13:44.257Z,48.20
2018-12-09T06:14:21.993Z,48.20
2018-12-09T06:15:00.219Z,48.20
2018-12-09T06:15:37.960Z,48.00
2018-12-09T06:16:15.559Z,47.90
2018-12-09T06:16:53.163Z,47.90
2018-12-09T06:17:30.649Z,47.70
2018-12-09T06:18:08.536Z,47.70
2018-12-09T06:18:46.588Z,48.20
2018-12-09T06:19:24.681Z,47.80
2018-12-09T06:20:02.590Z,47.70
2018-12-09T06:20:40.546Z,47.60
2018-12-09T06:21:18.763Z,47.50
2018-12-09T06:21:56.851Z,47.50
2018-12-09T06:22:34.480Z,47.60
2018-12-09T06:23:12.110Z,47.50
2018-12-09T06:23:50.620Z,47.50
2018-12-09T06:24:28.732Z,48.00
2018-12-09T06:25:06.983Z,47.40
2018-12-09T06:25:44.635Z,47.60
2018-12-09T06:26:22.630Z,47.40
2018-12-09T06:27:00.437Z,47.40
2018-12-09T06:27:38.412Z,47.30
2018-12-09T06:28:16.382Z,47.30
2018-12-09T06:28:55.067Z,47.30
2018-12-09T06:29:33.704Z,47.30
2018-12-09T06:30:11.488Z,47.40
2018-12-09T06:30:49.693Z,47.30
2018-12-09T06:31:27.464Z,47.60
2018-12-09T06:32:05.430Z,47.50
2018-12-09T06:32:43.224Z,47.40
2018-12-09T06:33:21.184Z,47.30
2018-12-09T06:33:59.813Z,47.30
2018-12-09T06:34:37.893Z,47.30
2018-12-09T06:35:15.604Z,47.50
2018-12-09T06:35:53.307Z,47.30
2018-12-09T06:36:31.074Z,47.30
2018-12-09T06:37:08.649Z,47.40
2018-12-09T06:37:46.785Z,47.20
2018-12-09T06:38:25.574Z,47.70
2018-12-09T06:39:03.356Z,47.50
2018-12-09T06:39:41.204Z,47.40
2018-12-09T06:40:19.106Z,47.50
2018-12-09T06:40:57.456Z,47.60
2018-12-09T06:41:35.316Z,47.40
2018-12-09T06:42:13.339Z,47.40
2018-12-09T06:42:50.809Z,47.30
2018-12-09T06:43:28.576Z,47.10
2018-12-09T06:44:07.096Z,47.10
2018-12-09T06:44:45.255Z,47.30
2018-12-09T06:45:22.985Z,47.10
2018-12-09T06:46:00.950Z,47.10
2018-12-09T06:46:38.730Z,47.00
2018-12-09T06:47:16.240Z,47.10
2018-12-09T06:47:54.205Z,47.20
2018-12-09T06:48:32.019Z,47.10
2018-12-09T06:49:09.699Z,47.10
2018-12-09T06:49:48.197Z,47.20
2018-12-09T06:50:26.066Z,47.10
2018-12-09T06:51:04.038Z,47.00
2018-12-09T06:51:42.458Z,46.90
2018-12-09T06:52:19.921Z,46.90
2018-12-09T06:52:57.739Z,46.90
2018-12-09T06:53:35.569Z,47.00
2018-12-09T06:54:14.021Z,47.00
2018-12-09T06:54:51.768Z,47.00
2018-12-09T06:55:29.332Z,47.10
2018-12-09T06:56:06.921Z,47.00
2018-12-09T06:56:45.130Z,47.60
2018-12-09T06:57:23.029Z,47.00
2018-12-09T06:58:00.568Z,47.00
2018-12-09T06:58:38.188Z,47.00
2018-12-09T06:59:16.250Z,47.00
2018-12-09T06:59:54.819Z,46.90
2018-12-09T07:00:32.751Z,47.00
2018-12-09T07:01:10.623Z,47.00
2018-12-09T07:01:48.681Z,46.90
2018-12-09T07:02:26.461Z,46.90
2018-12-09T07:03:05.517Z,46.90
2018-12-09T07:03:43.451Z,46.90
2018-12-09T07:04:21.660Z,46.80
2018-12-09T07:04:59.791Z,46.90
2018-12-09T07:05:37.728Z,46.80
2018-12-09T07:06:15.750Z,47.20
2018-12-09T07:06:53.481Z,47.10
2018-12-09T07:07:31.470Z,47.00
2018-12-09T07:08:08.993Z,46.90
2018-12-09T07:08:46.903Z,46.80
2018-12-09T07:09:24.691Z,46.80
2018-12-09T07:10:03.111Z,46.90
2018-12-09T07:10:41.230Z,47.00
2018-12-09T07:11:18.984Z,47.00
2018-12-09T07:11:56.695Z,46.90
2018-12-09T07:12:35.421Z,46.90
2018-12-09T07:13:13.342Z,46.80
2018-12-09T07:13:50.983Z,46.80
2018-12-09T07:14:29.142Z,46.80
2018-12-09T07:15:06.935Z,46.80
2018-12-09T07:15:44.923Z,46.80
2018-12-09T07:16:22.832Z,46.80
2018-12-09T07:17:00.703Z,47.00
2018-12-09T07:17:38.363Z,46.90
2018-12-09T07:18:16.132Z,46.90
2018-12-09T07:18:53.782Z,46.70
2018-12-09T07:19:31.564Z,46.70
2018-12-09T07:20:09.923Z,46.70
2018-12-09T07:20:47.647Z,46.60
2018-12-09T07:21:25.545Z,46.90
2018-12-09T07:22:03.788Z,47.20
2018-12-09T07:22:41.387Z,46.60
2018-12-09T07:23:19.693Z,46.60
2018-12-09T07:23:57.806Z,46.50
2018-12-09T07:24:36.303Z,46.50
2018-12-09T07:25:14.093Z,46.40
2018-12-09T07:25:52.096Z,46.60
2018-12-09T07:26:29.814Z,46.70
2018-12-09T07:27:07.618Z,46.60
2018-12-09T07:27:45.492Z,46.50
2018-12-09T07:28:23.293Z,46.50
2018-12-09T07:29:01.273Z,46.50
2018-12-09T07:29:39.357Z,46.60
2018-12-09T07:30:17.182Z,46.50
2018-12-09T07:30:55.182Z,46.50
2018-12-09T07:31:33.394Z,46.70
2018-12-09T07:32:11.543Z,46.60
2018-12-09T07:32:49.123Z,46.60
2018-12-09T07:33:27.223Z,46.60
2018-12-09T07:34:04.943Z,46.60
2018-12-09T07:34:43.427Z,46.50
2018-12-09T07:35:21.632Z,46.30
2018-12-09T07:35:59.695Z,46.40
2018-12-09T07:36:37.533Z,46.40
2018-12-09T07:37:15.551Z,46.50
2018-12-09T07:37:53.133Z,46.50
2018-12-09T07:38:31.152Z,46.30
2018-12-09T07:39:09.145Z,46.20
2018-12-09T07:39:47.241Z,46.10
2018-12-09T07:40:25.113Z,46.20
2018-12-09T07:41:02.910Z,46.20
2018-12-09T07:41:40.725Z,46.40
2018-12-09T07:42:18.702Z,46.50
2018-12-09T07:42:57.264Z,46.30
2018-12-09T07:43:35.106Z,46.30
2018-12-09T07:44:13.003Z,45.90
2018-12-09T07:44:51.451Z,46.30
2018-12-09T07:45:29.543Z,46.10
2018-12-09T07:46:07.386Z,46.40
2018-12-09T07:46:45.122Z,46.30
2018-12-09T07:47:23.480Z,46.40
2018-12-09T07:48:00.929Z,46.40
2018-12-09T07:48:38.741Z,46.20
2018-12-09T07:49:16.741Z,46.10
2018-12-09T07:49:54.818Z,46.10
2018-12-09T07:50:33.890Z,46.00
2018-12-09T07:51:11.492Z,46.00
2018-12-09T07:51:49.504Z,45.90
2018-12-09T07:52:27.641Z,46.00
2018-12-09T07:53:06.172Z,46.00
2018-12-09T07:53:44.133Z,46.00
2018-12-09T07:54:21.770Z,46.00
2018-12-09T07:54:59.702Z,46.10
2018-12-09T07:55:37.510Z,46.00
2018-12-09T07:56:15.331Z,46.00
2018-12-09T07:56:53.201Z,46.00
2018-12-09T07:57:30.804Z,46.30
2018-12-09T07:58:08.923Z,46.10
2018-12-09T07:58:46.860Z,46.10
2018-12-09T07:59:24.674Z,46.10
2018-12-09T08:00:02.560Z,46.00
2018-12-09T08:00:40.511Z,45.90
2018-12-09T08:01:18.517Z,45.90
2018-12-09T08:01:56.600Z,46.10
2018-12-09T08:02:34.290Z,46.10
2018-12-09T08:03:12.121Z,46.00
2018-12-09T08:03:50.139Z,46.20
2018-12-09T08:04:27.849Z,46.10
2018-12-09T08:05:05.713Z,46.00
2018-12-09T08:05:43.651Z,46.00
2018-12-09T08:06:21.923Z,46.10
2018-12-09T08:06:59.957Z,46.00
2018-12-09T08:07:37.849Z,46.00
2018-12-09T08:08:15.717Z,45.90
2018-12-09T08:08:53.489Z,45.90